Time;durP1;ratioP1;P1;durP2;ratioP2;P2;SDS_P1;SDS_P2;PMS_P1;PMS_P2;Temp;Humidity;BMP_temperature;BMP_pressure;BME280_temperature;BME280_humidity;BME280_pressure;Samples;Min_cycle;Max_cycle;Signal;HPM_P1;HPM_P2
2023/01/31 00:00:23;;;;;;;35.97;4.43;;;3.80;99.90;;;;;;5014058;28;20449;-45
2023/01/31 00:02:50;;;;;;;29.60;3.17;;;3.80;99.90;;;;;;5012449;28;20081;-45
2023/01/31 00:05:18;;;;;;;31.35;4.07;;;3.80;99.90;;;;;;5012525;28;20042;-45
2023/01/31 00:07:45;;;;;;;23.25;3.70;;;3.70;99.90;;;;;;5013483;28;20065;-45
2023/01/31 00:10:13;;;;;;;31.42;4.45;;;3.70;99.90;;;;;;5012899;28;20108;-47
2023/01/31 00:12:40;;;;;;;29.52;4.47;;;3.70;99.90;;;;;;5013303;28;20096;-47
2023/01/31 00:15:08;;;;;;;42.88;4.75;;;3.60;99.90;;;;;;5013583;28;20505;-44
2023/01/31 00:17:35;;;;;;;33.17;4.25;;;3.60;99.90;;;;;;5012301;28;20046;-46
2023/01/31 00:20:01;;;;;;;36.35;4.05;;;3.60;99.90;;;;;;5012483;28;20053;-43
2023/01/31 00:22:28;;;;;;;27.13;3.67;;;3.50;99.90;;;;;;5012946;28;20077;-48
2023/01/31 00:24:55;;;;;;;24.30;4.07;;;3.50;99.90;;;;;;5013210;28;20482;-45
2023/01/31 00:27:23;;;;;;;32.08;4.07;;;3.50;99.90;;;;;;5013193;28;20085;-48
2023/01/31 00:29:50;;;;;;;33.75;4.00;;;3.40;99.90;;;;;;5012133;28;20046;-48
2023/01/31 00:32:17;;;;;;;29.67;4.60;;;3.40;99.90;;;;;;5012475;28;20088;-44
2023/01/31 00:34:44;;;;;;;22.27;3.42;;;3.40;99.90;;;;;;5013264;28;20050;-44
2023/01/31 00:37:10;;;;;;;34.70;4.25;;;3.30;99.90;;;;;;5013117;28;20108;-45
2023/01/31 00:39:37;;;;;;;38.00;4.35;;;3.30;99.90;;;;;;5011428;28;20136;-46
2023/01/31 00:42:04;;;;;;;30.38;3.95;;;3.30;99.90;;;;;;5012748;28;20481;-46
2023/01/31 00:44:32;;;;;;;29.73;4.40;;;3.30;99.90;;;;;;5011655;28;20088;-46
2023/01/31 00:46:59;;;;;;;29.15;3.78;;;3.20;99.90;;;;;;5011981;28;20089;-44
2023/01/31 00:49:26;;;;;;;25.63;3.10;;;3.20;99.90;;;;;;5010638;28;20549;-47
2023/01/31 00:51:53;;;;;;;27.80;3.53;;;3.20;99.90;;;;;;5004127;28;20057;-47
2023/01/31 00:54:19;;;;;;;37.45;4.43;;;3.10;99.90;;;;;;5011735;28;20050;-47
2023/01/31 00:56:49;;;;;;;30.52;3.45;;;3.10;99.90;;;;;;5012553;28;20058;-47
2023/01/31 00:59:16;;;;;;;32.65;4.10;;;3.10;99.90;;;;;;5013302;28;20088;-49
2023/01/31 01:01:44;;;;;;;19.85;2.97;;;3.10;99.90;;;;;;5012600;28;20129;-48
2023/01/31 01:04:11;;;;;;;30.35;4.03;;;3.10;99.90;;;;;;5012389;28;20050;-48
2023/01/31 01:06:39;;;;;;;35.40;4.55;;;3.10;99.90;;;;;;5012321;28;20046;-48
2023/01/31 01:09:05;;;;;;;25.60;3.53;;;3.00;99.90;;;;;;5012112;28;20470;-45
2023/01/31 01:11:33;;;;;;;20.38;3.10;;;3.00;99.90;;;;;;5012206;28;20057;-48
2023/01/31 01:14:00;;;;;;;31.55;4.60;;;3.00;99.90;;;;;;5012517;28;20045;-45
2023/01/31 01:16:28;;;;;;;23.30;3.22;;;3.00;99.90;;;;;;5011301;28;20104;-49
2023/01/31 01:18:56;;;;;;;20.80;3.67;;;2.90;99.90;;;;;;5012319;28;20073;-50
2023/01/31 01:21:24;;;;;;;32.75;3.25;;;2.90;99.90;;;;;;5012499;28;20132;-42
2023/01/31 01:23:51;;;;;;;20.40;3.15;;;2.90;99.90;;;;;;5012810;28;20108;-45
2023/01/31 01:26:19;;;;;;;22.20;3.53;;;2.90;99.90;;;;;;5012024;28;20078;-44
2023/01/31 01:28:46;;;;;;;25.38;3.45;;;2.90;99.90;;;;;;5012283;28;20112;-47
2023/01/31 01:31:15;;;;;;;27.40;4.00;;;2.80;99.90;;;;;;5011316;28;20100;-45
2023/01/31 01:33:42;;;;;;;22.33;3.33;;;2.80;99.90;;;;;;5011945;28;20069;-46
2023/01/31 01:36:16;;;;;;;26.48;3.53;;;2.80;99.90;;;;;;5011205;28;20059;-45
2023/01/31 01:38:43;;;;;;;27.55;3.78;;;2.80;99.90;;;;;;4991994;28;20050;-43
2023/01/31 01:41:10;;;;;;;24.33;3.33;;;2.80;99.90;;;;;;5008362;28;20470;-45
2023/01/31 01:43:44;;;;;;;29.52;3.50;;;2.80;99.90;;;;;;5011172;28;20054;-43
2023/01/31 01:46:12;;;;;;;21.23;3.78;;;2.80;99.90;;;;;;5011159;28;20077;-46
2023/01/31 01:48:39;;;;;;;23.00;3.10;;;2.80;99.90;;;;;;5012075;28;20130;-46
2023/01/31 01:51:06;;;;;;;29.52;3.33;;;2.80;99.90;;;;;;5012404;28;20053;-46
2023/01/31 01:53:35;;;;;;;22.52;3.63;;;2.80;99.90;;;;;;5011445;28;20196;-48
2023/01/31 01:56:03;;;;;;;22.90;3.38;;;2.70;99.90;;;;;;5010212;28;20502;-42
2023/01/31 01:58:32;;;;;;;29.20;3.60;;;2.80;99.90;;;;;;5011201;28;20462;-48
2023/01/31 02:00:59;;;;;;;25.83;2.92;;;2.70;99.90;;;;;;5011249;28;20092;-44
2023/01/31 02:03:25;;;;;;;27.33;4.25;;;2.70;99.90;;;;;;5010054;28;20513;-46
2023/01/31 02:05:54;;;;;;;23.45;3.20;;;2.70;99.90;;;;;;5010577;28;20093;-47
2023/01/31 02:08:22;;;;;;;30.08;3.50;;;2.70;99.90;;;;;;5010618;28;20085;-44
2023/01/31 02:10:52;;;;;;;18.65;2.63;;;2.70;99.90;;;;;;5012020;28;20104;-48
2023/01/31 02:13:19;;;;;;;28.90;3.55;;;2.70;99.90;;;;;;5010261;28;20446;-46
2023/01/31 02:15:46;;;;;;;25.58;3.65;;;2.70;99.90;;;;;;5011050;28;20055;-44
2023/01/31 02:18:12;;;;;;;28.08;3.78;;;2.70;99.90;;;;;;5014673;28;20046;-47
2023/01/31 02:21:30;;;;;;;25.10;2.90;;;2.70;99.90;;;;;;5014871;28;20100;-47
2023/01/31 02:24:33;;;;;;;20.83;2.88;;;2.70;99.90;;;;;;5012531;28;20472;-47
2023/01/31 02:27:18;;;;;;;29.95;3.45;;;2.70;99.90;;;;;;5014218;28;20537;-44
2023/01/31 02:29:56;;;;;;;23.30;3.65;;;2.70;99.90;;;;;;5014225;28;20050;-43
2023/01/31 02:32:51;;;;;;;26.90;3.22;;;2.80;99.90;;;;;;5015248;28;20089;-49
2023/01/31 02:35:24;;;;;;;26.65;3.50;;;2.80;99.90;;;;;;5010548;28;20062;-43
2023/01/31 02:37:56;;;;;;;24.05;3.20;;;2.80;99.90;;;;;;5014241;28;20100;-45
2023/01/31 02:40:26;;;;;;;28.63;3.08;;;2.80;99.90;;;;;;5013938;28;20125;-44
2023/01/31 02:42:55;;;;;;;28.45;3.42;;;2.80;99.90;;;;;;5014243;28;20214;-43
2023/01/31 02:45:25;;;;;;;31.08;3.05;;;2.80;99.90;;;;;;5014288;28;20529;-44
2023/01/31 02:48:05;;;;;;;24.63;3.53;;;2.80;99.90;;;;;;5015553;28;20050;-45
2023/01/31 02:50:34;;;;;;;21.70;3.40;;;2.80;99.90;;;;;;4996327;28;20057;-49
2023/01/31 02:53:04;;;;;;;25.00;3.33;;;2.80;99.90;;;;;;5013658;28;20585;-47
2023/01/31 02:58:19;;;;;;;26.95;3.53;;;2.90;99.90;;;;;;5005823;28;20136;-46
2023/01/31 03:00:46;;;;;;;29.35;3.58;;;2.90;99.90;;;;;;5013845;28;20085;-46
2023/01/31 03:03:19;;;;;;;30.98;3.92;;;3.00;99.90;;;;;;5015036;28;20137;-47
2023/01/31 03:06:10;;;;;;;29.27;3.72;;;3.00;99.90;;;;;;5006042;28;20548;-46
2023/01/31 03:08:37;;;;;;;29.85;3.55;;;3.10;99.90;;;;;;5013175;28;20089;-44
2023/01/31 03:11:05;;;;;;;26.75;3.38;;;3.10;99.90;;;;;;5013237;28;20176;-50
2023/01/31 03:13:35;;;;;;;25.55;3.47;;;3.10;99.90;;;;;;5013060;28;20081;-45
2023/01/31 03:19:01;;;;;;;25.73;3.33;;;3.20;99.90;;;;;;5013728;28;20054;-47
2023/01/31 03:21:29;;;;;;;28.42;3.47;;;3.20;99.90;;;;;;5013792;28;20141;-46
2023/01/31 03:23:56;;;;;;;27.70;3.33;;;3.20;99.90;;;;;;5013091;28;20078;-43
2023/01/31 03:26:23;;;;;;;28.48;3.53;;;3.30;99.90;;;;;;5011897;28;20076;-42
2023/01/31 03:28:53;;;;;;;21.30;3.05;;;3.30;99.90;;;;;;5013605;28;20116;-46
2023/01/31 03:31:22;;;;;;;27.02;3.03;;;3.30;99.90;;;;;;5014255;28;20038;-47
2023/01/31 03:33:51;;;;;;;36.92;3.33;;;3.40;99.90;;;;;;5013333;28;20108;-47
2023/01/31 03:36:24;;;;;;;25.35;2.92;;;3.40;99.90;;;;;;5013328;28;20446;-46
2023/01/31 03:38:55;;;;;;;21.45;3.10;;;3.40;99.90;;;;;;5012517;28;20544;-44
2023/01/31 03:41:24;;;;;;;24.98;3.80;;;3.40;99.90;;;;;;5013930;28;20498;-49
2023/01/31 03:43:57;;;;;;;26.85;3.38;;;3.50;99.90;;;;;;5013194;28;20081;-49
2023/01/31 03:46:26;;;;;;;22.65;3.70;;;3.40;99.90;;;;;;5013490;28;20426;-48
2023/01/31 03:48:53;;;;;;;29.27;3.22;;;3.40;99.90;;;;;;5013769;28;20060;-47
2023/01/31 03:51:24;;;;;;;28.60;3.83;;;3.50;99.90;;;;;;4995036;28;20523;-41
2023/01/31 03:53:52;;;;;;;25.70;3.70;;;3.50;99.90;;;;;;5010041;28;20514;-48
2023/01/31 03:56:21;;;;;;;34.70;3.97;;;3.50;99.90;;;;;;5013599;28;20050;-50
2023/01/31 03:58:50;;;;;;;26.17;4.22;;;3.50;99.90;;;;;;5013453;28;20082;-49
2023/01/31 04:01:17;;;;;;;26.02;3.33;;;3.50;99.90;;;;;;5012722;28;20038;-48
2023/01/31 04:03:45;;;;;;;27.35;3.97;;;3.50;99.90;;;;;;5014006;28;20057;-48
2023/01/31 04:06:12;;;;;;;29.17;4.05;;;3.60;99.90;;;;;;5013662;28;20422;-49
2023/01/31 04:08:40;;;;;;;24.27;3.45;;;3.60;99.90;;;;;;5011877;28;20096;-48
2023/01/31 04:11:09;;;;;;;37.10;4.97;;;3.60;99.90;;;;;;5012263;28;20541;-48
2023/01/31 04:13:39;;;;;;;22.80;3.80;;;3.60;99.90;;;;;;5012296;28;20137;-48
2023/01/31 04:16:07;;;;;;;29.90;4.22;;;3.70;99.90;;;;;;5011681;28;20046;-47
2023/01/31 04:18:33;;;;;;;24.05;3.58;;;3.70;99.90;;;;;;5013881;28;20057;-47
2023/01/31 04:21:00;;;;;;;35.28;5.47;;;3.70;99.90;;;;;;5011754;28;20554;-48
2023/01/31 04:23:27;;;;;;;34.35;3.97;;;3.70;99.90;;;;;;5011675;28;20457;-46
2023/01/31 04:25:55;;;;;;;31.73;4.10;;;3.80;99.90;;;;;;5012213;28;20077;-47
2023/01/31 04:28:22;;;;;;;47.88;4.38;;;3.80;99.90;;;;;;5012675;28;20108;-51
2023/01/31 04:30:52;;;;;;;28.00;4.53;;;3.80;99.90;;;;;;5012658;28;20180;-46
2023/01/31 04:33:19;;;;;;;35.75;4.22;;;3.90;99.90;;;;;;5011686;28;20144;-47
2023/01/31 04:35:46;;;;;;;39.30;5.50;;;3.90;99.90;;;;;;5011662;28;20045;-48
2023/01/31 04:38:12;;;;;;;30.25;4.07;;;4.10;99.90;;;;;;5011595;28;20176;-51
2023/01/31 04:40:39;;;;;;;40.13;4.63;;;4.10;99.90;;;;;;5010833;28;20077;-49
2023/01/31 04:43:07;;;;;;;33.63;4.85;;;4.10;99.90;;;;;;5012291;28;20100;-45
2023/01/31 04:45:34;;;;;;;30.63;4.28;;;4.20;99.90;;;;;;5010699;28;20089;-49
2023/01/31 04:48:01;;;;;;;40.10;5.50;;;4.30;99.90;;;;;;5010521;28;20136;-48
2023/01/31 04:50:28;;;;;;;40.70;4.90;;;4.30;99.90;;;;;;5010011;28;20056;-47
2023/01/31 04:52:54;;;;;;;28.08;3.95;;;4.30;99.90;;;;;;5007569;28;20454;-49
2023/01/31 04:55:21;;;;;;;36.95;4.78;;;4.40;99.90;;;;;;5007167;28;20140;-45
2023/01/31 04:57:48;;;;;;;40.00;5.70;;;4.40;99.90;;;;;;5010292;28;20496;-46
2023/01/31 05:00:17;;;;;;;32.65;5.22;;;4.50;99.90;;;;;;5009811;28;20123;-51
2023/01/31 05:02:45;;;;;;;33.60;4.75;;;4.50;99.90;;;;;;5010951;28;20454;-50
2023/01/31 05:05:12;;;;;;;38.97;5.30;;;4.50;99.90;;;;;;5012162;28;20045;-51
2023/01/31 05:07:39;;;;;;;35.22;5.15;;;4.50;99.90;;;;;;5008119;28;20414;-49
2023/01/31 05:10:10;;;;;;;25.70;4.80;;;4.50;99.90;;;;;;5007114;28;20049;-46
2023/01/31 05:12:37;;;;;;;33.47;5.35;;;4.60;99.90;;;;;;5012166;28;20050;-50
2023/01/31 05:15:06;;;;;;;38.55;4.90;;;4.60;99.90;;;;;;5009068;28;20474;-49
2023/01/31 05:17:34;;;;;;;42.45;5.28;;;4.60;99.90;;;;;;5009556;28;20147;-48
2023/01/31 05:20:01;;;;;;;30.52;4.38;;;4.60;99.90;;;;;;5012261;28;20108;-49
2023/01/31 05:22:28;;;;;;;29.65;5.20;;;4.60;99.90;;;;;;5011219;28;20533;-42
2023/01/31 05:24:55;;;;;;;41.25;5.65;;;4.70;99.90;;;;;;5010672;28;20053;-49
2023/01/31 05:27:22;;;;;;;35.35;5.80;;;4.70;99.90;;;;;;5009986;28;20489;-47
2023/01/31 05:29:48;;;;;;;36.08;5.35;;;4.70;99.90;;;;;;5011911;28;20053;-47
2023/01/31 05:32:16;;;;;;;32.85;5.40;;;4.80;99.90;;;;;;5012150;28;20053;-49
2023/01/31 05:34:44;;;;;;;33.85;6.05;;;4.80;99.90;;;;;;5011352;28;20124;-48
2023/01/31 05:37:11;;;;;;;36.97;5.32;;;4.80;99.90;;;;;;5026952;28;20116;-44
2023/01/31 05:39:38;;;;;;;31.08;5.30;;;4.80;99.90;;;;;;5011748;28;20068;-46
2023/01/31 05:42:05;;;;;;;37.03;6.25;;;4.80;99.90;;;;;;5011587;28;20049;-51
2023/01/31 05:44:32;;;;;;;32.28;5.65;;;4.80;99.90;;;;;;5011987;28;20564;-47
2023/01/31 05:46:59;;;;;;;34.17;5.05;;;4.80;99.90;;;;;;5010682;28;20103;-47
2023/01/31 05:49:30;;;;;;;40.40;5.65;;;4.80;99.90;;;;;;5012179;28;20085;-47
2023/01/31 05:51:59;;;;;;;36.30;6.50;;;4.80;99.90;;;;;;5013965;28;20061;-48
2023/01/31 05:54:25;;;;;;;45.05;6.57;;;4.80;99.90;;;;;;5015155;28;20081;-51
2023/01/31 05:56:52;;;;;;;38.70;7.35;;;4.80;99.90;;;;;;5014825;28;20144;-48
2023/01/31 05:59:19;;;;;;;35.33;6.30;;;4.80;99.90;;;;;;5015792;28;20564;-50
2023/01/31 06:01:46;;;;;;;36.25;5.85;;;4.80;99.90;;;;;;5016304;28;20127;-49
2023/01/31 06:04:13;;;;;;;39.40;6.35;;;4.80;99.90;;;;;;5014790;28;20053;-49
2023/01/31 06:06:40;;;;;;;34.55;6.57;;;4.80;99.90;;;;;;4996651;28;20054;-50
2023/01/31 06:09:08;;;;;;;44.95;7.43;;;4.80;99.90;;;;;;5012667;28;20100;-49
2023/01/31 06:11:34;;;;;;;38.10;7.00;;;4.80;99.90;;;;;;5013438;28;20054;-48
2023/01/31 06:14:01;;;;;;;41.80;7.40;;;4.80;99.90;;;;;;5013582;28;20046;-48
2023/01/31 06:16:28;;;;;;;37.08;7.60;;;4.80;99.90;;;;;;5013838;28;20074;-50
2023/01/31 06:18:55;;;;;;;43.63;7.65;;;4.80;99.90;;;;;;5014399;28;20137;-49
2023/01/31 06:21:22;;;;;;;32.40;7.95;;;4.80;99.90;;;;;;5014839;28;20069;-53
2023/01/31 06:23:49;;;;;;;39.53;7.70;;;4.80;99.90;;;;;;5013750;28;20137;-49
2023/01/31 06:26:17;;;;;;;41.75;6.80;;;4.80;99.90;;;;;;5006978;28;20070;-46
2023/01/31 06:28:44;;;;;;;37.42;7.10;;;4.80;99.90;;;;;;5015347;28;20054;-52
2023/01/31 06:31:11;;;;;;;37.97;7.60;;;4.90;99.90;;;;;;5014096;28;20527;-49
2023/01/31 06:33:38;;;;;;;40.28;7.47;;;4.90;99.90;;;;;;5011220;28;20137;-51
2023/01/31 06:36:05;;;;;;;38.83;6.88;;;4.90;99.90;;;;;;5013146;28;20099;-48
2023/01/31 06:38:32;;;;;;;38.85;7.95;;;4.90;99.90;;;;;;5014048;28;20054;-49
2023/01/31 06:40:59;;;;;;;41.65;7.50;;;5.00;99.90;;;;;;5013115;28;20049;-50
2023/01/31 06:43:27;;;;;;;36.63;7.63;;;4.90;99.90;;;;;;5015151;28;20050;-51
2023/01/31 06:45:54;;;;;;;39.55;7.18;;;5.00;99.90;;;;;;5014653;28;20086;-51
2023/01/31 06:48:21;;;;;;;40.38;7.35;;;5.00;99.90;;;;;;5027530;28;20128;-42
2023/01/31 06:50:47;;;;;;;41.20;6.97;;;5.00;99.90;;;;;;5007928;28;20077;-50
2023/01/31 06:53:14;;;;;;;37.08;7.28;;;5.10;99.90;;;;;;5011896;28;20077;-50
2023/01/31 06:55:41;;;;;;;30.48;6.70;;;5.00;99.90;;;;;;5013357;28;20085;-49
2023/01/31 06:58:08;;;;;;;36.78;6.88;;;5.10;99.90;;;;;;5013653;28;20431;-52
2023/01/31 07:00:36;;;;;;;32.75;6.28;;;5.10;99.90;;;;;;5012778;28;20057;-49
2023/01/31 07:03:03;;;;;;;40.08;7.95;;;5.20;99.90;;;;;;5003217;28;20114;-51
2023/01/31 07:05:30;;;;;;;43.92;7.15;;;5.20;99.90;;;;;;5013663;28;20093;-48
2023/01/31 07:07:57;;;;;;;35.50;7.00;;;5.20;99.90;;;;;;5013487;28;20489;-48
2023/01/31 07:10:23;;;;;;;32.15;6.40;;;5.20;99.90;;;;;;5014389;28;20057;-50
2023/01/31 07:12:50;;;;;;;44.25;7.20;;;5.20;99.90;;;;;;4994942;28;20054;-48
2023/01/31 07:15:17;;;;;;;36.58;7.05;;;5.20;99.90;;;;;;5009637;28;20077;-50
2023/01/31 07:17:45;;;;;;;33.20;6.13;;;5.30;99.90;;;;;;5014328;28;20111;-47
2023/01/31 07:20:12;;;;;;;39.92;6.25;;;5.40;99.90;;;;;;5009047;28;20056;-50
2023/01/31 07:22:39;;;;;;;33.83;6.60;;;5.40;99.90;;;;;;5012897;28;20112;-49
2023/01/31 07:25:07;;;;;;;32.38;6.55;;;5.50;99.90;;;;;;5014437;28;20054;-47
2023/01/31 07:27:34;;;;;;;28.63;5.35;;;5.40;99.90;;;;;;5012801;28;20212;-49
2023/01/31 07:30:00;;;;;;;35.50;5.80;;;5.50;99.90;;;;;;5014129;28;20441;-50
2023/01/31 07:32:29;;;;;;;28.33;5.00;;;5.50;99.90;;;;;;5012775;28;20108;-49
2023/01/31 07:34:57;;;;;;;35.97;6.22;;;5.60;99.90;;;;;;5013964;28;20149;-49
2023/01/31 07:37:24;;;;;;;31.85;5.72;;;5.60;99.90;;;;;;5012248;28;20100;-50
2023/01/31 07:39:51;;;;;;;34.88;5.45;;;5.60;99.90;;;;;;5013246;28;20493;-46
2023/01/31 07:42:18;;;;;;;28.73;4.57;;;5.70;99.90;;;;;;5014239;28;20054;-48
2023/01/31 07:44:45;;;;;;;27.88;4.78;;;5.80;99.90;;;;;;5013009;28;20062;-47
2023/01/31 07:47:11;;;;;;;26.35;4.60;;;5.80;99.90;;;;;;5013742;28;20049;-48
2023/01/31 07:49:38;;;;;;;38.88;4.75;;;5.80;99.90;;;;;;5014463;28;20494;-49
2023/01/31 07:52:06;;;;;;;37.67;5.80;;;5.80;99.90;;;;;;5012371;28;20074;-48
2023/01/31 07:54:33;;;;;;;36.40;5.68;;;5.80;99.90;;;;;;5012598;28;20057;-48
2023/01/31 07:57:00;;;;;;;26.00;5.05;;;5.80;99.90;;;;;;5013503;28;20104;-49
2023/01/31 07:59:27;;;;;;;37.10;5.68;;;5.80;99.90;;;;;;5014483;28;20085;-50
2023/01/31 08:04:49;;;;;;;30.38;4.35;;;5.90;99.90;;;;;;4991835;28;20054;-48
2023/01/31 08:07:17;;;;;;;28.13;5.05;;;5.90;99.90;;;;;;5008814;28;20088;-53
2023/01/31 08:09:45;;;;;;;40.30;5.65;;;5.90;99.90;;;;;;5013610;28;20417;-50
2023/01/31 08:12:12;;;;;;;29.20;5.32;;;5.90;99.90;;;;;;5014091;28;20053;-47
2023/01/31 08:14:39;;;;;;;24.70;4.85;;;5.90;99.90;;;;;;5014100;28;20050;-52
2023/01/31 08:17:07;;;;;;;27.52;5.55;;;6.00;99.90;;;;;;5011541;28;20089;-49
2023/01/31 08:19:34;;;;;;;32.15;5.43;;;6.00;99.90;;;;;;5012301;28;20128;-48
2023/01/31 08:22:01;;;;;;;33.13;4.78;;;6.00;99.90;;;;;;5012097;28;20054;-52
2023/01/31 08:24:30;;;;;;;33.45;5.57;;;6.00;99.90;;;;;;5012805;28;20088;-50
2023/01/31 08:27:02;;;;;;;28.48;5.10;;;6.10;99.90;;;;;;5012855;28;20100;-48
2023/01/31 08:29:29;;;;;;;34.65;5.32;;;6.00;99.90;;;;;;5012918;28;20042;-51
2023/01/31 08:31:56;;;;;;;29.58;5.13;;;6.00;99.90;;;;;;5012006;28;20073;-49
2023/01/31 08:34:23;;;;;;;29.63;5.82;;;6.10;99.90;;;;;;5011764;28;20510;-50
2023/01/31 08:36:49;;;;;;;33.58;6.47;;;6.10;99.90;;;;;;5012822;28;20129;-50
2023/01/31 08:39:16;;;;;;;29.38;5.40;;;6.10;99.90;;;;;;5012139;28;20053;-48
2023/01/31 08:41:44;;;;;;;30.65;5.93;;;6.10;99.90;;;;;;5012674;28;20093;-51
2023/01/31 08:44:12;;;;;;;29.65;5.97;;;6.10;99.90;;;;;;5013670;28;20096;-51
2023/01/31 08:46:39;;;;;;;28.83;5.43;;;6.10;99.90;;;;;;5012655;28;20088;-50
2023/01/31 08:49:06;;;;;;;31.95;5.15;;;6.10;99.90;;;;;;5011757;28;20058;-52
2023/01/31 08:51:33;;;;;;;36.33;5.82;;;6.20;99.90;;;;;;5011566;28;20058;-48
2023/01/31 08:54:00;;;;;;;32.28;5.38;;;6.20;99.90;;;;;;5013341;28;20111;-50
2023/01/31 08:56:27;;;;;;;32.28;5.18;;;6.20;99.90;;;;;;5013471;28;20046;-52
2023/01/31 08:58:55;;;;;;;28.83;4.82;;;6.20;99.90;;;;;;5012975;28;20057;-47
2023/01/31 09:01:22;;;;;;;29.15;4.70;;;6.20;99.90;;;;;;5012329;28;20510;-49
2023/01/31 09:03:55;;;;;;;23.90;4.22;;;6.30;99.90;;;;;;5011258;28;20570;-49
2023/01/31 09:06:22;;;;;;;28.08;4.63;;;6.30;99.90;;;;;;5012390;28;20069;-49
2023/01/31 09:08:49;;;;;;;28.52;4.35;;;6.30;99.90;;;;;;5011778;28;20132;-48
2023/01/31 09:11:17;;;;;;;26.73;3.92;;;6.30;99.90;;;;;;5011343;28;20081;-49
2023/01/31 09:13:44;;;;;;;28.70;3.88;;;6.30;99.90;;;;;;5013131;28;20060;-47
2023/01/31 09:16:13;;;;;;;26.40;4.72;;;6.30;99.90;;;;;;5013038;28;20544;-48
2023/01/31 09:18:40;;;;;;;22.77;4.72;;;6.40;99.90;;;;;;5012267;28;20492;-49
2023/01/31 09:21:07;;;;;;;27.23;5.03;;;6.40;99.90;;;;;;5012067;28;20069;-50
2023/01/31 09:23:34;;;;;;;19.10;4.00;;;6.40;99.90;;;;;;5011050;28;20092;-47
2023/01/31 09:26:01;;;;;;;31.17;4.45;;;6.40;99.90;;;;;;5011389;28;20053;-49
2023/01/31 09:28:28;;;;;;;24.85;4.65;;;6.40;99.90;;;;;;5012465;28;20470;-47
2023/01/31 09:30:55;;;;;;;29.27;4.53;;;6.50;99.90;;;;;;4993251;28;20081;-48
2023/01/31 09:33:23;;;;;;;25.85;4.43;;;6.50;99.90;;;;;;5010881;28;20098;-47
2023/01/31 09:35:57;;;;;;;25.58;5.22;;;6.50;99.90;;;;;;5012988;28;20053;-46
2023/01/31 09:38:24;;;;;;;33.00;4.25;;;6.50;99.90;;;;;;5011179;28;20062;-47
2023/01/31 09:40:51;;;;;;;29.83;4.95;;;6.60;99.90;;;;;;5012988;28;20413;-49
2023/01/31 09:43:18;;;;;;;23.60;4.57;;;6.60;99.90;;;;;;5011471;28;20080;-47
2023/01/31 09:45:45;;;;;;;27.88;4.47;;;6.70;99.90;;;;;;5011672;28;20092;-45
2023/01/31 09:48:17;;;;;;;28.75;4.05;;;6.70;99.90;;;;;;5012150;28;20054;-48
2023/01/31 09:50:47;;;;;;;33.95;4.40;;;6.70;99.90;;;;;;5012034;28;20085;-47
2023/01/31 09:53:20;;;;;;;29.88;4.60;;;6.80;99.90;;;;;;5012197;28;20058;-48
2023/01/31 09:55:51;;;;;;;26.55;4.35;;;6.80;99.90;;;;;;5011804;28;20431;-46
2023/01/31 09:58:22;;;;;;;26.02;3.90;;;6.80;99.90;;;;;;5010976;28;20487;-46
2023/01/31 10:00:50;;;;;;;31.90;4.22;;;6.80;99.90;;;;;;5011565;28;20105;-47
2023/01/31 10:03:37;;;;;;;25.88;4.50;;;6.90;99.90;;;;;;5011699;28;20050;-49
2023/01/31 10:06:08;;;;;;;25.52;3.95;;;6.90;99.90;;;;;;5011983;28;20089;-50
2023/01/31 10:08:40;;;;;;;24.98;4.03;;;6.90;99.90;;;;;;5012591;28;20081;-48
2023/01/31 10:11:10;;;;;;;30.23;4.72;;;6.90;99.90;;;;;;5010963;28;20064;-51
2023/01/31 10:13:38;;;;;;;34.45;4.60;;;6.90;99.90;;;;;;5012384;28;20085;-46
2023/01/31 10:16:09;;;;;;;20.60;3.95;;;7.00;99.90;;;;;;5011978;28;20148;-43
2023/01/31 10:18:37;;;;;;;27.88;5.40;;;7.00;99.90;;;;;;4992918;28;20170;-48
2023/01/31 10:21:07;;;;;;;26.08;4.03;;;7.10;99.90;;;;;;4991775;28;20137;-47
2023/01/31 10:23:35;;;;;;;35.60;5.05;;;7.10;99.90;;;;;;5008087;28;20116;-47
2023/01/31 10:26:03;;;;;;;28.55;4.18;;;7.10;99.90;;;;;;5011162;28;20112;-49
2023/01/31 10:28:34;;;;;;;28.80;5.22;;;7.10;99.90;;;;;;5012596;28;20057;-48
2023/01/31 10:31:04;;;;;;;30.17;4.82;;;7.10;99.90;;;;;;5011667;28;20497;-46
2023/01/31 10:33:36;;;;;;;32.70;5.55;;;7.10;99.90;;;;;;5012729;28;20437;-50
2023/01/31 10:36:04;;;;;;;;;;;7.10;99.90;;;;;;5011246;28;20061;-44
2023/01/31 10:38:33;;;;;;;24.20;4.32;;;7.10;99.90;;;;;;5012922;28;19976;-48
2023/01/31 10:41:05;;;;;;;29.52;5.40;;;7.10;99.90;;;;;;5015393;28;20082;-45
2023/01/31 10:43:34;;;;;;;36.70;5.63;;;7.10;99.90;;;;;;5016080;28;20049;-50
2023/01/31 10:46:01;;;;;;;26.98;4.90;;;7.10;99.90;;;;;;5014146;28;20085;-49
2023/01/31 10:48:29;;;;;;;33.95;6.25;;;7.10;99.90;;;;;;5013463;28;20077;-46
2023/01/31 10:51:00;;;;;;;41.58;6.15;;;7.10;99.90;;;;;;5014744;28;20042;-47
2023/01/31 10:53:45;;;;;;;;;;;7.10;99.90;;;;;;5015556;28;20053;-48
2023/01/31 10:56:14;;;;;;;36.13;6.68;;;7.10;99.90;;;;;;5014612;28;20408;-47
2023/01/31 10:58:41;;;;;;;24.23;5.00;;;7.00;99.90;;;;;;5013991;28;20093;-48
2023/01/31 11:01:10;;;;;;;29.70;5.07;;;7.00;99.90;;;;;;5014235;28;20081;-48
2023/01/31 11:03:37;;;;;;;33.78;5.70;;;7.10;99.90;;;;;;5015189;28;20179;-50
2023/01/31 11:06:05;;;;;;;31.83;5.32;;;7.00;99.90;;;;;;5015643;28;20058;-51
2023/01/31 11:08:35;;;;;;;41.95;6.10;;;7.00;99.90;;;;;;5014641;28;20050;-53
2023/01/31 11:11:07;;;;;;;38.92;6.80;;;7.00;99.90;;;;;;5015356;28;20096;-54
2023/01/31 11:13:34;;;;;;;34.17;6.40;;;7.00;99.90;;;;;;5013459;28;20046;-54
2023/01/31 11:16:01;;;;;;;40.78;5.43;;;7.10;99.90;;;;;;5014308;28;20081;-57
2023/01/31 11:18:29;;;;;;;37.03;5.82;;;7.10;99.90;;;;;;5014914;28;20108;-57
2023/01/31 11:20:56;;;;;;;37.25;6.82;;;7.10;99.90;;;;;;5014294;28;20129;-59
2023/01/31 11:23:23;;;;;;;45.22;6.43;;;7.10;99.90;;;;;;5013149;28;20140;-60
2023/01/31 11:25:51;;;;;;;42.78;5.63;;;7.10;99.90;;;;;;5015124;28;20046;-59
2023/01/31 11:28:22;;;;;;;34.28;6.28;;;7.10;99.90;;;;;;5014006;28;20058;-57
2023/01/31 11:30:50;;;;;;;35.47;6.90;;;7.20;99.90;;;;;;4994153;28;20093;-58
2023/01/31 11:33:40;;;;;;;30.45;6.07;;;7.20;99.90;;;;;;5012917;28;20104;-59
2023/01/31 11:36:11;;;;;;;37.63;6.55;;;7.20;99.90;;;;;;5013087;28;20169;-56
2023/01/31 11:38:37;;;;;;;37.22;6.68;;;7.10;99.90;;;;;;5013345;28;20081;-60
2023/01/31 11:41:23;;;;;;;36.03;7.18;;;7.20;99.90;;;;;;5013889;28;20089;-60
2023/01/31 11:43:56;;;;;;;38.05;6.03;;;7.20;99.90;;;;;;5013063;28;20498;-61
2023/01/31 11:46:22;;;;;;;37.90;5.45;;;7.20;99.90;;;;;;5013224;28;20054;-61
2023/01/31 11:48:49;;;;;;;34.42;5.85;;;7.20;99.90;;;;;;5014199;28;20049;-62
2023/01/31 11:51:25;;;;;;;38.28;6.15;;;7.20;99.90;;;;;;5013511;28;20445;-62
2023/01/31 11:53:52;;;;;;;32.80;6.03;;;7.20;99.90;;;;;;5013069;28;20108;-61
2023/01/31 11:56:21;;;;;;;36.97;5.60;;;7.20;99.90;;;;;;5014527;28;20092;-61
2023/01/31 11:58:49;;;;;;;39.85;6.10;;;7.20;99.90;;;;;;5013367;28;20045;-61
2023/01/31 12:01:17;;;;;;;34.08;5.80;;;7.20;99.90;;;;;;5012735;28;20526;-57
2023/01/31 12:03:46;;;;;;;31.42;5.03;;;7.20;99.90;;;;;;5012622;28;20089;-59
2023/01/31 12:06:13;;;;;;;31.55;5.63;;;7.20;99.90;;;;;;5012798;28;20050;-59
2023/01/31 12:08:41;;;;;;;34.30;5.65;;;7.20;99.90;;;;;;5012522;28;20125;-58
2023/01/31 12:11:26;;;;;;;29.80;6.43;;;7.30;99.90;;;;;;5014501;28;20475;-57
2023/01/31 12:13:53;;;;;;;32.70;5.15;;;7.30;99.90;;;;;;5012148;28;20134;-58
2023/01/31 12:16:23;;;;;;;26.85;4.35;;;7.30;99.90;;;;;;5013958;28;20085;-57
2023/01/31 12:19:08;;;;;;;27.67;5.63;;;7.30;99.90;;;;;;5013036;28;20050;-57
2023/01/31 12:21:41;;;;;;;41.78;5.65;;;7.40;99.90;;;;;;5013448;28;20133;-58
2023/01/31 12:24:13;;;;;;;35.15;4.65;;;7.50;99.90;;;;;;5013251;28;20050;-58
2023/01/31 12:26:43;;;;;;;36.40;4.65;;;7.50;99.90;;;;;;5012967;28;20546;-58
2023/01/31 12:29:24;;;;;;;26.55;4.57;;;7.50;99.90;;;;;;5012119;28;20486;-57
2023/01/31 12:32:05;;;;;;;22.63;3.83;;;7.50;99.90;;;;;;5012007;28;20050;-58
2023/01/31 12:34:44;;;;;;;23.38;3.97;;;7.60;99.90;;;;;;5011855;28;20096;-53
2023/01/31 12:37:18;;;;;;;27.35;4.95;;;7.70;99.90;;;;;;5013116;28;20104;-54
2023/01/31 12:39:51;;;;;;;28.27;3.83;;;7.70;99.90;;;;;;5012850;28;20143;-55
2023/01/31 12:42:30;;;;;;;26.50;5.72;;;7.80;99.90;;;;;;5013455;28;20050;-58
2023/01/31 12:45:05;;;;;;;22.63;3.80;;;7.80;99.90;;;;;;5013379;28;20127;-58
2023/01/31 12:47:46;;;;;;;23.23;3.78;;;7.90;99.90;;;;;;5012879;28;20482;-57
2023/01/31 12:50:25;;;;;;;26.73;4.75;;;7.90;99.90;;;;;;5012945;28;20089;-52
2023/01/31 12:53:08;;;;;;;21.92;3.70;;;8.00;99.90;;;;;;5012009;28;20058;-56
2023/01/31 12:55:36;;;;;;;23.42;4.65;;;8.00;99.90;;;;;;5011740;28;20085;-56
2023/01/31 12:58:14;;;;;;;19.65;3.72;;;8.10;99.90;;;;;;5011931;28;20139;-56
2023/01/31 13:00:43;;;;;;;22.80;3.70;;;8.10;99.90;;;;;;5012607;28;20445;-55
2023/01/31 13:03:29;;;;;;;28.42;3.65;;;8.20;99.90;;;;;;5013043;28;20041;-57
2023/01/31 13:05:57;;;;;;;22.17;3.45;;;8.20;99.90;;;;;;5012766;28;20140;-56